Priest Brook @ Winchendon, Ma

Priest Brook at Winchendon
 Total Drainage Area: 19 sq. miles 
 Drainage Area Controlled by Corps Dams: 0 sq. miles (0%) 
 Warning Flow/Stage: ?? cfs / ?? feet 
 Flood Flow/Stage: ?? cfs / ?? feet 
Date Time
(Eastern)
Stage
(ft)
Flow
(cfs)
CSM
(cfs / sq. mi.)
Feb-01 05:45 pm 3.30 69 3.6
Feb-01 04:45 pm 3.29 68 3.6
Feb-01 03:45 pm 3.28 67 3.5
Feb-01 02:45 pm 3.26 65 3.4
Feb-01 01:45 pm 3.24 62 3.3
Feb-01 12:45 pm 3.22 60 3.2
Feb-01 11:45 am      
Feb-01 10:45 am 3.34 74 3.9
Feb-01 09:45 am 3.21 59 3.1
Feb-01 08:45 am 3.16 54 2.9
Feb-01 07:45 am 3.15 53 2.8
Feb-01 06:45 am 3.17 55 2.9
Feb-01 05:45 am 3.20 58 3.1
Feb-01 04:45 am 3.24 62 3.3
Feb-01 03:45 am 3.26 65 3.4
Feb-01 02:45 am 3.26 65 3.4
Feb-01 01:45 am 3.27 66 3.5
Feb-01 12:45 am 3.26 65 3.4
Jan-31 11:45 pm 3.27 66 3.5
Jan-31 10:45 pm 3.27 66 3.5
Jan-31 09:45 pm 3.28 67 3.5
Jan-31 08:45 pm 3.28 67 3.5
Jan-31 07:45 pm 3.28 67 3.5
Jan-31 06:45 pm 3.28 67 3.5
Jan-31 05:45 pm 3.28 67 3.5
Report Generated February 01, 2023 11:05 pm